Tice, Florida
Current Conditions -  °F | °C
As of 11:53 AM on Friday 24 Oct 2014 (Local Time) from KFMY Reporting Station
Overcast Overcast  
Wind Chill: 79°   Ceiling: 4300
Heat Index: 81°   Visibility: 10mi
Dew Point: 63°   Wind: 16mph
Humidity: 58%   Direction: 40°NE
Pressure: 29.94"   Gusts: NA
Location:  26.6679°N, 81.7525°W
Report Text: KFMY 241553Z 04014KT 10SM OVC043 26/17 A2994 RMK AO2 SLP139 T02610172
Loading
Personal Weather Stations






























Interactive Weather Map
Tropical Storm Tracking
New forecast layout! Learn more

10-Day Weather Forecast

Advertisements
Track Severe Weather on mobile